Time;durP1;ratioP1;P1;durP2;ratioP2;P2;SDS_P1;SDS_P2;PMS_P1;PMS_P2;Temp;Humidity;BMP_temperature;BMP_pressure;BME280_temperature;BME280_humidity;BME280_pressure;Samples;Min_cycle;Max_cycle;Signal;HPM_P1;HPM_P2
2021/06/20 00:01:10;;;;;;;11.60;9.17;;;27.80;99.90;;;;;;5056511;28;20298;-60
2021/06/20 00:03:35;;;;;;;10.40;9.50;;;27.60;99.90;;;;;;5055901;28;20194;-60
2021/06/20 00:06:06;;;;;;;10.00;8.97;;;27.50;99.90;;;;;;5056399;28;20158;-59
2021/06/20 00:08:32;;;;;;;10.60;8.93;;;27.50;99.90;;;;;;5055906;28;20267;-60
2021/06/20 00:10:58;;;;;;;10.60;8.67;;;27.40;99.90;;;;;;5056064;28;20492;-60
2021/06/20 00:13:23;;;;;;;9.90;9.00;;;27.40;99.90;;;;;;5056666;28;20631;-60
2021/06/20 00:15:51;;;;;;;10.17;9.37;;;27.50;99.90;;;;;;5056112;28;20167;-60
2021/06/20 00:18:17;;;;;;;9.60;8.80;;;27.60;99.90;;;;;;5055802;28;20608;-60
2021/06/20 00:20:45;;;;;;;11.77;10.37;;;27.60;99.90;;;;;;5056600;28;20453;-58
2021/06/20 00:23:11;;;;;;;10.73;9.63;;;27.60;99.90;;;;;;5055898;28;20155;-60
2021/06/20 00:25:38;;;;;;;10.73;9.63;;;27.70;99.90;;;;;;5055750;28;20890;-59
2021/06/20 00:28:05;;;;;;;11.00;9.90;;;27.40;99.90;;;;;;5055558;28;20459;-60
2021/06/20 00:30:32;;;;;;;10.80;9.70;;;27.50;99.90;;;;;;5055730;28;20893;-60
2021/06/20 00:32:59;;;;;;;12.50;10.43;;;27.60;99.90;;;;;;5053611;28;20432;-59
2021/06/20 00:35:25;;;;;;;10.23;9.33;;;27.60;99.90;;;;;;5055666;28;20409;-60
2021/06/20 00:37:51;;;;;;;11.00;9.60;;;27.80;99.90;;;;;;5055460;28;20437;-60
2021/06/20 00:40:19;;;;;;;11.27;10.17;;;27.90;99.90;;;;;;5055418;28;20480;-60
2021/06/20 00:42:45;;;;;;;10.43;9.40;;;27.90;99.90;;;;;;5055610;28;20401;-60
2021/06/20 00:45:13;;;;;;;10.60;9.50;;;28.00;99.90;;;;;;5055486;28;20807;-59
2021/06/20 00:47:39;;;;;;;10.60;9.70;;;28.10;99.90;;;;;;5055002;28;20425;-60
2021/06/20 00:50:06;;;;;;;9.47;8.70;;;28.00;99.60;;;;;;5054878;28;20403;-59
2021/06/20 00:52:33;;;;;;;9.63;8.63;;;28.10;99.30;;;;;;5055781;28;20194;-59
2021/06/20 00:54:58;;;;;;;10.03;9.03;;;28.10;99.70;;;;;;5055254;28;20492;-60
2021/06/20 00:57:24;;;;;;;10.23;9.13;;;28.00;99.90;;;;;;5055406;28;20495;-59
2021/06/20 00:59:50;;;;;;;10.63;9.63;;;27.90;99.90;;;;;;5055501;28;20182;-58
2021/06/20 01:02:17;;;;;;;10.97;9.80;;;27.80;99.90;;;;;;5055578;28;20257;-60
2021/06/20 01:04:49;;;;;;;14.53;9.83;;;27.70;99.50;;;;;;5054358;28;20447;-59
2021/06/20 01:07:19;;;;;;;17.53;9.90;;;27.80;99.10;;;;;;5054920;28;20468;-59
2021/06/20 01:09:45;;;;;;;24.90;10.20;;;27.90;98.60;;;;;;5055274;28;20500;-60
2021/06/20 01:12:12;;;;;;;22.00;9.77;;;27.90;98.50;;;;;;5054641;28;20492;-59
2021/06/20 01:14:37;;;;;;;23.20;8.87;;;27.80;98.00;;;;;;5054634;28;20167;-59
2021/06/20 01:17:04;;;;;;;25.30;10.10;;;28.00;97.80;;;;;;5054588;28;20405;-59
2021/06/20 01:19:30;;;;;;;20.90;10.27;;;28.00;97.50;;;;;;5053942;28;20202;-60
2021/06/20 01:21:57;;;;;;;17.83;9.20;;;28.00;97.50;;;;;;5057051;28;20429;-60
2021/06/20 01:24:23;;;;;;;23.33;9.80;;;28.10;97.50;;;;;;5055186;28;20405;-60
2021/06/20 01:26:49;;;;;;;24.03;9.70;;;28.20;97.30;;;;;;5053668;28;20466;-60
2021/06/20 01:29:17;;;;;;;19.50;8.80;;;28.20;97.00;;;;;;5047305;28;20912;-60
2021/06/20 01:31:49;;;;;;;22.40;9.07;;;28.10;97.20;;;;;;5034425;28;20186;-60
2021/06/20 01:34:16;;;;;;;19.47;9.10;;;28.00;97.30;;;;;;5033994;28;20930;-59
2021/06/20 01:36:42;;;;;;;26.50;9.70;;;28.10;97.10;;;;;;5034315;28;21102;-60
2021/06/20 01:39:09;;;;;;;26.90;9.20;;;28.00;97.30;;;;;;5034136;28;20521;-59
2021/06/20 01:41:35;;;;;;;30.87;10.50;;;28.00;96.90;;;;;;5034402;28;20164;-60
2021/06/20 01:44:01;;;;;;;21.40;9.30;;;27.80;97.30;;;;;;5034084;28;20398;-58
2021/06/20 01:46:26;;;;;;;21.27;9.17;;;27.80;97.30;;;;;;5034442;28;20398;-60
2021/06/20 01:48:52;;;;;;;21.37;9.43;;;27.70;97.40;;;;;;5045454;28;20187;-59
2021/06/20 01:51:17;;;;;;;23.47;9.10;;;27.70;97.20;;;;;;5053963;28;20174;-60
2021/06/20 01:53:43;;;;;;;27.00;10.30;;;27.70;97.40;;;;;;5053956;28;20205;-60
2021/06/20 01:56:09;;;;;;;30.70;10.17;;;27.60;97.50;;;;;;5053508;28;20169;-59
2021/06/20 01:58:34;;;;;;;23.37;9.90;;;27.60;97.50;;;;;;5053665;28;20219;-60
2021/06/20 02:01:01;;;;;;;30.93;9.40;;;27.70;97.30;;;;;;5053703;28;20190;-59
2021/06/20 02:03:28;;;;;;;20.43;9.10;;;27.60;97.50;;;;;;5053975;28;20208;-60
2021/06/20 02:05:58;;;;;;;29.40;10.10;;;27.50;97.60;;;;;;5053985;28;20771;-60
2021/06/20 02:08:23;;;;;;;17.63;8.30;;;27.60;97.40;;;;;;5053808;28;20425;-59
2021/06/20 02:10:51;;;;;;;22.73;8.90;;;27.70;97.30;;;;;;5053582;28;20406;-60
2021/06/20 02:13:18;;;;;;;21.63;9.03;;;27.70;97.40;;;;;;5053873;28;20562;-58
2021/06/20 02:15:44;;;;;;;21.47;9.00;;;27.60;97.30;;;;;;5053570;28;20401;-58
2021/06/20 02:18:11;;;;;;;23.73;9.77;;;27.50;97.60;;;;;;5051500;28;20445;-60
2021/06/20 02:20:38;;;;;;;22.20;8.97;;;27.40;97.70;;;;;;5053449;28;20194;-60
2021/06/20 02:23:04;;;;;;;22.87;8.80;;;27.50;97.60;;;;;;5053428;28;20413;-60
2021/06/20 02:25:31;;;;;;;25.93;10.30;;;27.60;97.60;;;;;;5053429;28;20412;-60
2021/06/20 02:27:56;;;;;;;22.33;8.97;;;27.50;97.70;;;;;;5052309;28;21022;-59
2021/06/20 02:30:23;;;;;;;30.00;10.40;;;27.60;97.80;;;;;;5053844;28;20516;-60
2021/06/20 02:32:50;;;;;;;22.23;10.17;;;27.40;97.90;;;;;;5053549;28;20163;-60
2021/06/20 02:35:17;;;;;;;24.07;9.80;;;27.30;98.10;;;;;;5052937;28;20424;-59
2021/06/20 02:37:44;;;;;;;23.80;8.80;;;27.40;98.10;;;;;;5053443;28;20802;-56
2021/06/20 02:40:10;;;;;;;23.63;8.97;;;27.50;98.10;;;;;;5053368;28;20462;-59
2021/06/20 02:42:37;;;;;;;27.07;8.60;;;27.50;98.10;;;;;;5053160;28;20774;-58
2021/06/20 02:45:05;;;;;;;20.00;8.30;;;27.50;98.20;;;;;;5053403;28;20444;-55
2021/06/20 02:47:31;;;;;;;30.43;10.80;;;27.50;98.30;;;;;;5053039;28;20440;-55
2021/06/20 02:49:57;;;;;;;23.47;9.90;;;27.40;98.50;;;;;;5053957;28;20397;-57
2021/06/20 02:52:22;;;;;;;24.50;10.20;;;27.30;98.70;;;;;;5057405;28;20716;-56
2021/06/20 02:54:51;;;;;;;22.47;9.60;;;27.40;98.60;;;;;;5057272;28;20650;-59
2021/06/20 02:57:23;;;;;;;23.23;8.63;;;27.40;98.50;;;;;;5053158;28;20179;-54
2021/06/20 02:59:50;;;;;;;24.57;8.87;;;27.50;98.70;;;;;;5069279;22;20487;-56
2021/06/20 03:02:16;;;;;;;22.13;9.23;;;27.50;98.40;;;;;;5053475;28;20420;-56
2021/06/20 03:04:42;;;;;;;20.57;9.60;;;27.20;98.70;;;;;;5052634;28;20385;-57
2021/06/20 03:07:08;;;;;;;19.43;7.90;;;27.20;98.80;;;;;;5052935;28;20396;-54
2021/06/20 03:09:36;;;;;;;21.20;9.23;;;27.30;98.90;;;;;;5052854;28;20417;-57
2021/06/20 03:12:06;;;;;;;26.40;9.70;;;27.30;98.90;;;;;;5055531;28;20171;-56
2021/06/20 03:14:33;;;;;;;25.10;9.67;;;27.20;98.70;;;;;;5052823;28;20802;-54
2021/06/20 03:16:59;;;;;;;23.40;9.50;;;27.30;99.00;;;;;;5053132;28;20416;-56
2021/06/20 03:19:25;;;;;;;19.77;8.83;;;27.40;99.20;;;;;;5052422;28;20449;-56
2021/06/20 03:21:56;;;;;;;21.07;9.97;;;27.30;99.00;;;;;;5053085;28;20439;-56
2021/06/20 03:24:22;;;;;;;19.70;7.90;;;27.30;99.30;;;;;;5052982;28;20494;-54
2021/06/20 03:26:48;;;;;;;18.60;9.17;;;27.40;99.20;;;;;;5052743;28;20451;-57
2021/06/20 03:29:13;;;;;;;16.53;9.37;;;27.40;99.40;;;;;;5052294;28;20227;-56
2021/06/20 03:31:39;;;;;;;21.30;7.97;;;27.40;99.70;;;;;;5055687;28;20225;-57
2021/06/20 03:34:05;;;;;;;26.63;10.90;;;27.20;99.90;;;;;;5056683;28;20520;-56
2021/06/20 03:36:31;;;;;;;22.00;8.77;;;27.00;99.90;;;;;;5056871;28;20245;-55
2021/06/20 03:38:57;;;;;;;20.07;9.40;;;27.10;99.90;;;;;;5056627;28;20183;-55
2021/06/20 03:41:22;;;;;;;24.73;9.93;;;27.10;99.90;;;;;;5056482;28;20927;-55
2021/06/20 03:43:48;;;;;;;22.40;9.50;;;27.20;99.90;;;;;;5056717;28;20177;-52
2021/06/20 03:46:14;;;;;;;28.53;10.13;;;27.20;99.90;;;;;;5056676;28;20166;-56
2021/06/20 03:48:40;;;;;;;23.33;10.13;;;27.00;99.90;;;;;;5055990;28;20208;-56
2021/06/20 03:51:06;;;;;;;21.87;8.97;;;26.90;99.90;;;;;;5056470;28;20175;-56
2021/06/20 03:53:32;;;;;;;23.37;9.40;;;26.90;99.90;;;;;;5056457;28;20462;-57
2021/06/20 03:55:58;;;;;;;21.70;8.50;;;27.00;99.90;;;;;;5056401;28;20808;-55
2021/06/20 03:58:24;;;;;;;18.10;9.20;;;26.90;99.90;;;;;;5056037;28;20183;-56
2021/06/20 04:00:50;;;;;;;16.90;8.53;;;26.90;99.90;;;;;;5055955;28;20257;-56
2021/06/20 04:03:16;;;;;;;24.87;9.50;;;26.70;99.90;;;;;;5055233;28;20212;-53
2021/06/20 04:05:42;;;;;;;20.73;9.40;;;26.40;99.90;;;;;;5055779;28;20893;-57
2021/06/20 04:08:07;;;;;;;19.10;9.80;;;26.50;99.90;;;;;;5056281;28;20173;-56
2021/06/20 04:10:33;;;;;;;20.43;9.20;;;26.60;99.90;;;;;;5056053;28;20515;-56
2021/06/20 04:12:59;;;;;;;23.37;9.47;;;26.70;99.90;;;;;;5055853;28;20179;-57
2021/06/20 04:15:26;;;;;;;20.60;9.47;;;26.70;99.90;;;;;;5056347;28;20401;-56
2021/06/20 04:17:51;;;;;;;25.13;9.13;;;26.60;99.90;;;;;;5056099;28;20430;-56
2021/06/20 04:20:17;;;;;;;21.67;9.07;;;26.60;99.90;;;;;;5054438;28;20671;-56
2021/06/20 04:22:44;;;;;;;22.00;10.23;;;26.50;99.90;;;;;;5043190;28;20167;-56
2021/06/20 04:25:13;;;;;;;24.10;10.10;;;26.20;99.90;;;;;;5036176;28;20605;-54
2021/06/20 04:27:40;;;;;;;24.63;9.20;;;26.20;99.90;;;;;;5035895;28;20414;-55
2021/06/20 04:30:06;;;;;;;21.00;9.83;;;26.30;99.90;;;;;;5035816;28;20560;-54
2021/06/20 04:32:32;;;;;;;18.33;9.13;;;26.20;99.90;;;;;;5035484;28;20502;-54
2021/06/20 04:34:57;;;;;;;18.90;9.70;;;26.20;99.90;;;;;;5051230;28;20492;-56
2021/06/20 04:37:23;;;;;;;20.30;8.30;;;26.20;99.90;;;;;;5055441;28;20174;-56
2021/06/20 04:39:49;;;;;;;18.13;8.43;;;26.20;99.90;;;;;;5055273;28;20208;-55
2021/06/20 04:42:17;;;;;;;20.60;10.00;;;26.40;99.90;;;;;;5055150;28;20167;-57
2021/06/20 04:44:43;;;;;;;20.10;10.27;;;26.20;99.90;;;;;;5055247;28;20467;-56
2021/06/20 04:47:14;;;;;;;21.00;10.57;;;26.20;99.90;;;;;;5055182;28;20397;-55
2021/06/20 04:49:40;;;;;;;21.20;9.30;;;26.20;99.90;;;;;;5055309;28;20421;-56
2021/06/20 04:52:07;;;;;;;17.67;10.07;;;26.20;99.90;;;;;;5055164;28;20448;-56
2021/06/20 04:54:35;;;;;;;15.80;8.93;;;26.10;99.90;;;;;;5055611;28;20428;-56
2021/06/20 04:57:02;;;;;;;20.23;9.37;;;26.10;99.90;;;;;;5055621;28;20409;-56
2021/06/20 04:59:28;;;;;;;19.70;10.07;;;26.10;99.90;;;;;;5053486;28;20839;-55
2021/06/20 05:01:53;;;;;;;16.47;9.30;;;26.00;99.90;;;;;;5054937;28;20401;-56
2021/06/20 05:04:19;;;;;;;27.37;9.90;;;26.10;99.90;;;;;;5054355;28;20179;-56
2021/06/20 05:06:44;;;;;;;24.70;9.70;;;26.20;99.90;;;;;;5054846;28;20624;-56
2021/06/20 05:09:10;;;;;;;19.50;9.57;;;26.20;99.90;;;;;;5055076;28;20256;-56
2021/06/20 05:11:35;;;;;;;18.60;9.30;;;26.20;99.90;;;;;;5057363;28;20181;-56
2021/06/20 05:14:01;;;;;;;16.43;8.60;;;26.30;99.90;;;;;;5055068;28;20593;-55
2021/06/20 05:16:27;;;;;;;19.17;9.30;;;26.40;99.90;;;;;;5055009;28;20174;-56
2021/06/20 05:18:53;;;;;;;18.93;9.00;;;26.50;99.90;;;;;;5054329;28;20198;-56
2021/06/20 05:21:18;;;;;;;22.20;8.23;;;26.50;99.90;;;;;;5054784;28;20651;-56
2021/06/20 05:23:45;;;;;;;20.30;8.10;;;26.50;99.90;;;;;;5054814;28;20281;-56
2021/06/20 05:26:10;;;;;;;14.33;7.50;;;26.60;99.90;;;;;;5054855;28;20523;-56
2021/06/20 05:28:36;;;;;;;17.37;8.43;;;26.50;99.90;;;;;;5054396;28;20527;-56
2021/06/20 05:31:01;;;;;;;11.27;7.50;;;26.60;99.90;;;;;;5054447;28;20535;-55
2021/06/20 05:33:27;;;;;;;12.07;5.93;;;26.70;99.90;;;;;;5054055;28;20179;-54
2021/06/20 05:35:52;;;;;;;15.73;6.57;;;26.80;99.90;;;;;;5054102;28;20173;-54
2021/06/20 05:38:18;;;;;;;13.83;6.53;;;27.00;99.90;;;;;;5054266;28;20182;-56
2021/06/20 05:40:44;;;;;;;9.20;5.70;;;27.10;99.90;;;;;;5054339;28;20277;-57
2021/06/20 05:43:09;;;;;;;12.53;5.53;;;27.10;99.90;;;;;;5054443;28;20220;-57
2021/06/20 05:45:35;;;;;;;11.90;5.63;;;27.10;99.90;;;;;;5054406;28;20624;-55
2021/06/20 05:48:02;;;;;;;10.63;5.10;;;27.20;99.90;;;;;;5053962;28;20301;-55
2021/06/20 05:50:28;;;;;;;14.93;5.73;;;27.10;99.90;;;;;;5053760;28;20219;-55
2021/06/20 05:52:55;;;;;;;15.33;5.20;;;27.00;99.90;;;;;;5053556;28;20433;-55
2021/06/20 05:55:21;;;;;;;10.63;5.40;;;27.10;99.90;;;;;;5054115;28;20478;-55
2021/06/20 05:57:46;;;;;;;10.53;5.00;;;27.20;99.90;;;;;;5054038;28;20409;-57
2021/06/20 06:00:13;;;;;;;8.30;4.43;;;27.20;99.90;;;;;;5053603;28;20691;-57
2021/06/20 06:02:40;;;;;;;13.90;5.77;;;27.30;99.90;;;;;;5053752;28;20205;-56
2021/06/20 06:05:07;;;;;;;13.53;5.30;;;27.30;99.90;;;;;;5053434;28;20405;-56
2021/06/20 06:07:33;;;;;;;11.90;4.70;;;27.40;99.90;;;;;;5054154;28;20397;-53
2021/06/20 06:09:59;;;;;;;7.67;4.57;;;27.60;99.90;;;;;;5054110;28;20830;-56
2021/06/20 06:12:25;;;;;;;11.43;5.10;;;27.60;99.90;;;;;;5053917;28;20171;-54
2021/06/20 06:14:52;;;;;;;11.00;4.83;;;27.40;99.90;;;;;;5053795;28;20410;-56
2021/06/20 06:17:17;;;;;;;13.73;4.73;;;27.50;99.90;;;;;;5053952;28;20656;-56
2021/06/20 06:19:43;;;;;;;11.37;4.63;;;27.40;99.90;;;;;;5053199;28;20506;-56
2021/06/20 06:22:09;;;;;;;13.10;4.20;;;27.60;99.90;;;;;;5053725;28;20163;-55
2021/06/20 06:24:34;;;;;;;8.80;4.20;;;27.50;99.60;;;;;;5053444;28;20631;-56
2021/06/20 06:27:00;;;;;;;9.63;4.53;;;27.40;99.60;;;;;;5053606;28;20232;-55
2021/06/20 06:29:25;;;;;;;9.53;4.57;;;27.50;99.60;;;;;;5053263;28;20187;-54
2021/06/20 06:31:51;;;;;;;10.93;5.03;;;27.70;99.80;;;;;;5053539;28;20245;-56
2021/06/20 06:34:17;;;;;;;5.67;4.27;;;27.60;99.50;;;;;;5053021;28;20189;-55
2021/06/20 06:36:42;;;;;;;8.73;3.80;;;27.30;99.70;;;;;;5053274;28;20246;-57
2021/06/20 06:39:08;;;;;;;10.53;4.10;;;27.60;99.50;;;;;;5053120;28;20202;-57
2021/06/20 06:41:33;;;;;;;13.83;4.50;;;27.40;99.40;;;;;;5053145;28;20205;-54
2021/06/20 06:43:59;;;;;;;11.07;5.77;;;27.50;99.50;;;;;;5053234;28;20558;-54
2021/06/20 06:46:25;;;;;;;9.73;5.27;;;27.30;99.60;;;;;;5053311;28;20174;-56
2021/06/20 06:48:50;;;;;;;14.17;4.70;;;27.30;99.90;;;;;;5051491;28;20193;-56
2021/06/20 06:51:16;;;;;;;9.53;5.30;;;27.40;99.90;;;;;;5051728;28;20222;-57
2021/06/20 06:53:41;;;;;;;11.10;5.80;;;27.90;99.90;;;;;;5052900;28;20189;-54
2021/06/20 06:56:07;;;;;;;10.13;5.07;;;28.00;99.60;;;;;;5053211;28;20174;-57
2021/06/20 06:58:33;;;;;;;10.27;5.27;;;28.30;99.70;;;;;;5053039;28;20209;-57
2021/06/20 07:00:58;;;;;;;14.23;6.30;;;28.40;99.30;;;;;;5052856;28;20198;-57
2021/06/20 07:03:24;;;;;;;18.47;9.37;;;28.40;99.80;;;;;;5052623;28;20173;-57
2021/06/20 07:05:49;;;;;;;13.90;8.47;;;28.20;99.90;;;;;;5058881;28;20174;-55
2021/06/20 07:08:15;;;;;;;20.90;9.90;;;27.80;99.90;;;;;;5057391;28;20171;-57
2021/06/20 07:10:41;;;;;;;26.43;9.67;;;27.50;99.90;;;;;;5057124;28;20198;-55
2021/06/20 07:13:06;;;;;;;22.27;9.37;;;27.40;99.90;;;;;;5055098;28;20678;-57
2021/06/20 07:15:32;;;;;;;17.90;8.80;;;27.40;99.90;;;;;;5044336;28;20532;-57
2021/06/20 07:17:59;;;;;;;17.10;8.50;;;27.60;99.90;;;;;;5036642;28;20307;-57
2021/06/20 07:20:24;;;;;;;18.97;9.33;;;27.60;99.90;;;;;;5036140;28;20280;-57
2021/06/20 07:22:50;;;;;;;21.40;7.50;;;27.70;99.90;;;;;;5036770;28;20440;-57
2021/06/20 07:25:19;;;;;;;12.60;6.70;;;27.50;99.90;;;;;;5037143;28;20171;-55
2021/06/20 07:27:45;;;;;;;13.60;6.93;;;27.20;99.90;;;;;;5036729;28;20402;-57
2021/06/20 07:30:16;;;;;;;12.27;7.50;;;27.30;99.90;;;;;;5048091;28;20449;-57
2021/06/20 07:32:43;;;;;;;12.47;7.17;;;27.40;99.90;;;;;;5056883;28;20386;-56
2021/06/20 07:35:10;;;;;;;12.97;6.90;;;27.70;99.90;;;;;;5056814;28;20405;-57
2021/06/20 07:37:36;;;;;;;16.77;7.37;;;28.00;99.90;;;;;;5057030;28;20405;-57
2021/06/20 07:40:04;;;;;;;10.00;6.27;;;27.90;99.90;;;;;;5055053;28;20452;-56
2021/06/20 07:42:30;;;;;;;11.97;6.70;;;27.60;99.90;;;;;;5055260;28;20163;-57
2021/06/20 07:44:56;;;;;;;13.47;7.43;;;27.60;99.90;;;;;;5056017;28;20397;-56
2021/06/20 07:47:21;;;;;;;10.83;6.37;;;27.40;99.90;;;;;;5057101;28;20324;-57
2021/06/20 07:49:47;;;;;;;10.60;6.73;;;27.20;99.90;;;;;;5056374;28;20186;-56
2021/06/20 07:52:13;;;;;;;14.70;6.80;;;27.20;99.90;;;;;;5056560;28;20171;-57
2021/06/20 07:54:42;;;;;;;15.47;7.93;;;27.10;99.90;;;;;;5056149;28;20174;-57
2021/06/20 07:57:08;;;;;;;15.63;6.00;;;27.10;99.90;;;;;;5057193;28;20170;-56
2021/06/20 07:59:34;;;;;;;15.10;6.70;;;27.20;99.90;;;;;;5054660;28;21108;-55
2021/06/20 08:02:00;;;;;;;16.43;7.43;;;27.00;99.90;;;;;;5056100;28;20163;-57
2021/06/20 08:04:25;;;;;;;16.50;7.40;;;26.80;99.90;;;;;;5055881;28;20774;-55
2021/06/20 08:06:51;;;;;;;11.07;7.40;;;27.10;99.90;;;;;;5056540;28;20171;-57
2021/06/20 08:09:18;;;;;;;12.50;6.87;;;27.00;99.90;;;;;;5056078;28;20197;-55
2021/06/20 08:11:44;;;;;;;29.80;7.83;;;27.20;99.90;;;;;;5055798;28;20186;-56
2021/06/20 08:14:09;;;;;;;12.00;6.67;;;27.50;99.90;;;;;;5055601;28;20393;-56
2021/06/20 08:16:35;;;;;;;16.87;7.27;;;27.30;99.90;;;;;;5054895;28;20167;-57
2021/06/20 08:19:01;;;;;;;12.17;6.97;;;27.20;99.90;;;;;;5055488;28;20221;-54
2021/06/20 08:21:26;;;;;;;11.07;6.10;;;27.20;99.90;;;;;;5055603;28;20205;-56
2021/06/20 08:23:52;;;;;;;12.23;6.60;;;27.00;99.90;;;;;;5055881;28;20241;-57
2021/06/20 08:26:18;;;;;;;9.80;5.80;;;26.80;99.90;;;;;;5055838;28;20706;-55
2021/06/20 08:28:44;;;;;;;11.30;6.60;;;26.70;99.90;;;;;;5055371;28;20195;-55
2021/06/20 08:31:09;;;;;;;11.40;7.00;;;27.00;99.90;;;;;;5055785;28;20171;-56
2021/06/20 08:33:35;;;;;;;11.43;6.10;;;27.20;99.90;;;;;;5055443;28;20256;-56
2021/06/20 08:36:00;;;;;;;12.20;7.33;;;27.20;99.90;;;;;;5055969;28;20171;-56
2021/06/20 08:38:26;;;;;;;10.33;6.53;;;27.10;99.90;;;;;;5055559;28;20171;-56
2021/06/20 08:40:55;;;;;;;16.30;7.10;;;27.20;99.90;;;;;;5055167;28;20209;-55
2021/06/20 08:43:22;;;;;;;11.77;5.70;;;27.20;99.90;;;;;;5055533;28;20175;-57
2021/06/20 08:45:52;;;;;;;11.70;6.50;;;27.50;99.90;;;;;;5054749;28;20409;-57
2021/06/20 08:48:19;;;;;;;11.70;6.50;;;27.40;99.90;;;;;;5055167;28;20786;-56
2021/06/20 08:50:45;;;;;;;10.70;6.27;;;27.50;99.90;;;;;;5055337;28;20405;-55
2021/06/20 08:53:15;;;;;;;16.37;6.73;;;27.60;99.90;;;;;;5055027;28;20412;-55
2021/06/20 08:55:43;;;;;;;10.03;6.80;;;27.60;99.90;;;;;;5055039;28;20147;-55
2021/06/20 08:58:18;;;;;;;10.77;6.53;;;27.30;99.90;;;;;;5052891;28;20429;-57
2021/06/20 09:00:44;;;;;;;11.93;6.17;;;27.10;99.90;;;;;;5072720;22;20491;-60
2021/06/20 09:03:10;;;;;;;12.60;6.97;;;27.30;99.90;;;;;;5054294;28;20424;-58
2021/06/20 09:05:35;;;;;;;9.83;6.63;;;27.40;99.90;;;;;;5054834;28;20639;-58
2021/06/20 09:08:01;;;;;;;11.00;5.87;;;27.50;99.90;;;;;;5055121;28;20577;-56
2021/06/20 09:10:30;;;;;;;11.03;6.63;;;27.70;99.90;;;;;;5054750;28;20241;-55
2021/06/20 09:12:59;;;;;;;15.43;7.50;;;27.80;99.90;;;;;;5054563;28;20163;-56
2021/06/20 09:15:27;;;;;;;12.43;7.20;;;27.70;99.90;;;;;;5054855;28;20399;-57
2021/06/20 09:17:58;;;;;;;13.50;6.37;;;27.80;99.90;;;;;;5054375;28;20405;-57
2021/06/20 09:20:36;;;;;;;9.53;5.93;;;28.20;99.90;;;;;;5054580;28;20444;-58
2021/06/20 09:23:06;;;;;;;12.70;6.33;;;28.50;99.90;;;;;;5054556;28;20405;-57
2021/06/20 09:25:32;;;;;;;13.27;6.13;;;28.60;99.90;;;;;;5054565;28;20890;-56
2021/06/20 09:28:00;;;;;;;16.20;6.13;;;28.60;99.90;;;;;;5054385;28;20454;-59
2021/06/20 09:30:29;;;;;;;15.60;6.13;;;28.60;99.90;;;;;;5054730;28;20186;-55
2021/06/20 09:33:00;;;;;;;15.23;6.87;;;28.40;99.90;;;;;;5054466;28;20401;-56
2021/06/20 09:35:42;;;;;;;10.70;6.10;;;28.30;99.90;;;;;;5054765;28;20385;-53
2021/06/20 09:38:15;;;;;;;9.80;6.00;;;28.60;99.90;;;;;;5054788;28;20438;-60
2021/06/20 09:40:41;;;;;;;13.70;6.37;;;28.60;99.90;;;;;;5054260;28;20471;-59
2021/06/20 09:43:15;;;;;;;12.23;5.87;;;28.10;99.90;;;;;;5054129;28;20406;-59
2021/06/20 09:45:44;;;;;;;14.83;6.43;;;28.00;99.90;;;;;;5055576;28;20159;-58
2021/06/20 09:48:31;;;;;;;11.17;6.03;;;28.10;99.90;;;;;;5053897;28;20401;-59
2021/06/20 09:50:58;;;;;;;9.23;5.47;;;27.80;99.90;;;;;;5054041;28;20765;-59
2021/06/20 09:53:50;;;;;;;11.27;5.77;;;28.10;99.90;;;;;;5054080;28;20423;-60
2021/06/20 09:56:19;;;;;;;10.67;5.53;;;28.60;99.90;;;;;;5052857;28;20914;-58
2021/06/20 09:58:47;;;;;;;12.40;6.10;;;28.60;99.40;;;;;;5053675;28;20917;-59
2021/06/20 10:01:15;;;;;;;12.03;5.73;;;28.70;99.20;;;;;;5053583;28;20511;-59
2021/06/20 10:03:43;;;;;;;13.73;5.83;;;29.00;99.90;;;;;;5053316;28;20501;-59
2021/06/20 10:06:10;;;;;;;11.83;5.73;;;28.90;99.30;;;;;;5052973;28;20424;-59
2021/06/20 10:08:35;;;;;;;6.80;4.17;;;29.00;99.10;;;;;;5039583;28;20410;-58
2021/06/20 10:11:02;;;;;;;10.83;5.67;;;29.10;99.50;;;;;;5033847;28;20444;-59
2021/06/20 10:13:27;;;;;;;7.93;4.33;;;29.00;98.80;;;;;;5033796;28;20171;-59
2021/06/20 10:16:09;;;;;;;16.50;5.40;;;29.00;97.90;;;;;;5033788;28;20402;-59
2021/06/20 10:18:38;;;;;;;9.43;3.93;;;29.10;97.70;;;;;;5033497;28;20160;-59
2021/06/20 10:21:04;;;;;;;10.90;4.10;;;28.70;96.90;;;;;;5033828;28;20906;-59
2021/06/20 10:23:29;;;;;;;10.20;4.40;;;28.90;97.70;;;;;;5033757;28;20438;-59
2021/06/20 10:26:07;;;;;;;7.90;3.80;;;29.00;96.20;;;;;;5033892;28;20194;-59
2021/06/20 10:28:34;;;;;;;6.50;3.20;;;29.10;95.60;;;;;;5034070;28;20147;-58
2021/06/20 10:31:08;;;;;;;7.57;3.40;;;28.80;95.90;;;;;;5033521;28;20426;-59
2021/06/20 10:33:34;;;;;;;8.80;3.40;;;28.60;95.40;;;;;;5041282;28;20417;-59
2021/06/20 10:36:13;;;;;;;7.10;3.43;;;28.60;94.80;;;;;;5049462;28;20460;-59
2021/06/20 10:38:46;;;;;;;8.00;3.40;;;28.50;95.10;;;;;;5042211;28;20976;-58
2021/06/20 10:41:26;;;;;;;8.10;3.20;;;28.40;95.00;;;;;;5033595;28;20450;-59
2021/06/20 10:44:00;;;;;;;7.27;3.80;;;28.60;95.50;;;;;;5034259;28;20897;-60
2021/06/20 10:46:26;;;;;;;7.00;3.00;;;28.70;94.30;;;;;;5033851;28;20439;-60
2021/06/20 10:48:52;;;;;;;16.93;3.30;;;28.50;94.10;;;;;;5032868;28;20402;-60
2021/06/20 10:51:19;;;;;;;9.47;3.43;;;28.60;94.70;;;;;;5033301;28;20625;-60
2021/06/20 10:53:45;;;;;;;6.57;3.23;;;28.30;94.30;;;;;;5033832;28;20435;-58
2021/06/20 10:56:26;;;;;;;6.00;3.00;;;28.50;94.10;;;;;;5033488;28;20410;-59
2021/06/20 10:58:56;;;;;;;6.77;3.17;;;28.60;94.10;;;;;;5033425;28;20425;-57
2021/06/20 11:01:26;;;;;;;6.20;3.00;;;28.70;93.60;;;;;;5033223;28;20464;-60
2021/06/20 11:03:51;;;;;;;4.83;2.77;;;29.20;93.80;;;;;;5045220;28;20409;-60
2021/06/20 11:06:22;;;;;;;7.23;3.17;;;29.80;93.00;;;;;;5053274;28;20413;-59
2021/06/20 11:08:56;;;;;;;5.17;2.53;;;29.80;92.90;;;;;;5053453;28;20181;-60
2021/06/20 11:11:24;;;;;;;7.30;3.40;;;30.10;93.80;;;;;;5055738;28;20830;-60
2021/06/20 11:13:55;;;;;;;8.40;4.00;;;30.30;92.60;;;;;;5053336;28;20826;-62
2021/06/20 11:16:36;;;;;;;6.53;3.10;;;30.30;92.60;;;;;;5053181;28;20812;-60
2021/06/20 11:19:09;;;;;;;4.93;2.80;;;30.30;92.80;;;;;;5052693;28;20419;-60
2021/06/20 11:21:56;;;;;;;9.00;3.00;;;30.50;93.10;;;;;;5053402;28;20455;-60
2021/06/20 11:24:28;;;;;;;5.93;3.80;;;30.40;92.70;;;;;;5053124;28;20385;-60
2021/06/20 11:26:55;;;;;;;6.70;3.00;;;30.70;92.80;;;;;;5052985;28;20886;-60
2021/06/20 11:29:21;;;;;;;5.87;3.07;;;30.60;91.90;;;;;;5052756;28;20429;-61
2021/06/20 11:31:53;;;;;;;9.93;4.27;;;30.40;92.10;;;;;;5053199;28;20766;-60
2021/06/20 11:34:19;;;;;;;8.23;3.07;;;30.40;91.90;;;;;;5052501;28;20405;-60
2021/06/20 11:36:45;;;;;;;4.40;2.60;;;31.00;91.50;;;;;;5053144;28;20939;-60
2021/06/20 11:39:13;;;;;;;7.07;3.47;;;31.80;90.60;;;;;;5052682;28;20178;-62
2021/06/20 11:42:05;;;;;;;8.07;3.60;;;32.70;89.70;;;;;;5052714;28;20421;-62
2021/06/20 11:44:30;;;;;;;11.27;3.70;;;32.70;88.70;;;;;;5051941;28;20885;-60
2021/06/20 11:46:56;;;;;;;8.30;3.27;;;33.80;85.40;;;;;;5053073;28;20415;-60
2021/06/20 11:49:24;;;;;;;7.43;3.20;;;33.80;84.80;;;;;;5052142;28;20259;-61
2021/06/20 11:51:55;;;;;;;6.07;3.33;;;33.80;82.20;;;;;;5054072;28;20285;-61
2021/06/20 11:54:26;;;;;;;5.17;3.00;;;33.80;82.30;;;;;;5056859;28;20472;-61
2021/06/20 11:56:53;;;;;;;8.17;3.60;;;34.00;80.50;;;;;;5056422;28;20425;-61
2021/06/20 11:59:32;;;;;;;8.30;3.60;;;34.20;80.00;;;;;;5054776;28;20425;-61
2021/06/20 12:01:59;;;;;;;13.30;3.73;;;34.70;79.90;;;;;;5056630;28;20488;-61
2021/06/20 12:04:28;;;;;;;12.73;4.77;;;34.90;77.50;;;;;;5056132;28;20465;-60
2021/06/20 12:06:53;;;;;;;9.47;4.17;;;33.90;77.00;;;;;;5056168;28;20403;-61
2021/06/20 12:09:22;;;;;;;16.67;5.10;;;34.10;78.10;;;;;;5056290;28;20428;-61
2021/06/20 12:11:59;;;;;;;12.53;3.73;;;34.60;74.70;;;;;;5056507;28;20190;-61
2021/06/20 12:14:26;;;;;;;7.37;3.80;;;35.70;71.60;;;;;;5056308;28;20846;-61
2021/06/20 12:16:53;;;;;;;11.30;4.03;;;35.10;69.60;;;;;;5056095;28;20401;-60
2021/06/20 12:19:21;;;;;;;13.70;4.20;;;34.60;69.90;;;;;;5055296;28;20937;-61
2021/06/20 12:21:48;;;;;;;14.03;4.40;;;34.60;69.70;;;;;;5055768;28;20413;-61
2021/06/20 12:24:14;;;;;;;12.87;4.83;;;35.20;68.60;;;;;;5057256;28;20755;-61
2021/06/20 12:26:51;;;;;;;9.10;3.70;;;35.30;68.60;;;;;;5056066;28;20402;-61
2021/06/20 12:29:18;;;;;;;18.30;4.70;;;35.90;68.80;;;;;;5056165;28;20420;-61
2021/06/20 12:31:55;;;;;;;10.23;3.83;;;36.00;68.10;;;;;;5054997;28;20420;-61
2021/06/20 12:34:21;;;;;;;19.67;4.40;;;35.90;68.70;;;;;;5055314;28;20628;-61
2021/06/20 12:37:00;;;;;;;18.77;5.07;;;36.00;68.40;;;;;;5055792;28;20417;-62
2021/06/20 12:39:26;;;;;;;7.80;3.70;;;37.60;63.90;;;;;;5055879;28;20236;-61